ADDS METAR Data INFO
IDs: Format: Raw Decoded Include TAF

Data at: 0749 UTC 24 Oct 2017

KVAF 240735Z AUTO 03007G13KT 10SM CLR 24/12 A3012 RMK A01
KVAF 240715Z AUTO 06009KT 10SM CLR 25/12 A3011 RMK A01
KVAF 240655Z AUTO 05008G14KT 10SM CLR 25/12 A3011 RMK A01
KVAF 240635Z AUTO 06009KT 10SM CLR 25/12 A3011 RMK A01
KVAF 240615Z AUTO VRB06G12KT 020V100 10SM CLR 25/11 A3011 RMK A01
KVAF 240555Z AUTO 05006G13KT 10SM CLR 25/11 A3011 RMK A01
KVAF 240535Z AUTO 07008KT 10SM CLR 25/11 A3011 RMK A01
KVAF 240515Z AUTO 07010KT 10SM CLR 24/11 A3011 RMK A01
KVAF 240455Z AUTO 04008G14KT 10SM CLR 24/09 A3012 RMK A01
KVAF 240435Z AUTO 05009G15KT 10SM CLR 24/10 A3011 RMK A01
KVAF 240415Z AUTO 07011KT 10SM CLR 25/10 A3011 RMK A01
KVAF 240355Z AUTO 06008G14KT 10SM CLR 24/10 A3011 RMK A01
KVAF 240335Z AUTO 06009KT 10SM CLR 25/10 A3011 RMK A01
KVAF 240315Z AUTO 06011KT 10SM CLR 24/10 A3011 RMK A01
KVAF 240255Z AUTO 07013KT 10SM CLR 24/10 A3010 RMK A01
KVAF 240235Z AUTO 06006G12KT 10SM CLR 24/10 A3009 RMK A01
KVAF 240215Z AUTO 07009KT 10SM CLR 24/10 A3009 RMK A01
KVAF 240155Z AUTO 09009KT 10SM CLR 25/11 A3008 RMK A01
KVAF 240135Z AUTO 06010KT 10SM CLR 24/09 A3008 RMK A01
KVAF 240115Z AUTO 06008G13KT 10SM CLR 24/11 A3008 RMK A01
KVAF 240055Z AUTO 05007G14KT 10SM CLR 24/11 A3008 RMK A01
KVAF 240035Z AUTO 05007KT 10SM CLR 24/10 A3008 RMK A01
KVAF 240015Z AUTO 04010KT 10SM CLR 24/11 A3007 RMK A01
KVAF 232355Z AUTO 04006G12KT 10SM CLR 24/11 A3007 RMK A01
KVAF 232335Z AUTO 03008G13KT 10SM CLR 24/10 A3006 RMK A01
KVAF 232315Z AUTO 04007G13KT 10SM CLR 24/10 A3007 RMK A01
KVAF 232255Z AUTO 04007KT 10SM CLR 24/10 A3007 RMK A01
KVAF 232235Z AUTO 03007G13KT 10SM CLR 23/09 A3006 RMK A01
KVAF 232215Z AUTO VRB06G13KT 10SM CLR 24/10 A3007 RMK A01
KVAF 232155Z AUTO VRB05G11KT 10SM CLR 24/11 A3007 RMK A01
KVAF 232135Z AUTO VRB06G12KT 10SM CLR 24/11 A3007 RMK A01
KVAF 232115Z AUTO 01009KT 330V060 10SM CLR 24/10 A3007 RMK A01
KVAF 232055Z AUTO 01007KT 10SM CLR 24/10 A3007 RMK A01
KVAF 232035Z AUTO 02007KT 350V060 10SM CLR 24/12 A3007 RMK A01
KVAF 232015Z AUTO 01008KT 10SM CLR 24/13 A3008 RMK A01
KVAF 231955Z AUTO VRB06KT 10SM CLR 24/13 A3008 RMK A01
KVAF 231935Z AUTO 03007KT 010V070 10SM CLR 24/13 A3009 RMK A01
KVAF 231915Z AUTO VRB06G13KT 10SM CLR 24/13 A3009 RMK A01
KVAF 231855Z AUTO 36008KT 10SM CLR 24/13 A3010 RMK A01
KVAF 231835Z AUTO 01009KT 10SM CLR 25/13 A3010 RMK A01
KVAF 231815Z AUTO 01008KT 310V050 10SM CLR 24/13 A3012 RMK A01
KVAF 231755Z AUTO 03006G12KT 10SM CLR 25/14 A3012 RMK A01
KVAF 231735Z AUTO VRB05G11KT 10SM CLR 25/14 A3013 RMK A01
KVAF 231715Z AUTO 02006KT 10SM CLR 25/14 A3014 RMK A01
KVAF 231655Z AUTO VRB05G11KT 10SM CLR 25/14 A3014 RMK A01
KVAF 231635Z AUTO 03007KT 340V050 10SM CLR 25/14 A3014 RMK A01
KVAF 231615Z AUTO 36007KT 330V030 10SM CLR 25/14 A3015 RMK A01
KVAF 231555Z AUTO 03007G12KT 10SM CLR 25/15 A3015 RMK A01
KVAF 231535Z AUTO 02007G14KT 10SM CLR 25/14 A3015 RMK A01
KVAF 231515Z AUTO 03008G14KT 10SM CLR 24/14 A3014 RMK A01
KVAF 231455Z AUTO 02009G15KT 350V050 10SM CLR 25/15 A3014 RMK A01
KVAF 231435Z AUTO VRB06G12KT 10SM CLR 25/15 A3014 RMK A01
KVAF 231415Z AUTO 02008G14KT 10SM CLR 25/15 A3014 RMK A01
KVAF 231355Z AUTO 01008G13KT 340V060 10SM CLR 25/15 A3013 RMK A01
KVAF 231335Z AUTO 01008G14KT 340V050 10SM FEW034 24/15 A3013 RMK A01
KVAF 231315Z AUTO 01008G18KT 320V040 10SM FEW034 24/16 A3012 RMK A01
KVAF 231255Z AUTO VRB07G23KT 10SM CLR 24/15 A3012 RMK A01
KVAF 231235Z AUTO 36008KT 310V030 10SM FEW034 23/16 A3012 RMK A01
KVAF 231215Z AUTO 36008G14KT 320V050 10SM CLR 23/16 A3011 RMK A01
KVAF 231155Z AUTO 03010KT 10SM CLR 24/15 A3011 RMK A01
KVAF 231135Z AUTO 01007G13KT 10SM CLR 24/15 A3011 RMK A01
KVAF 231115Z AUTO 01010KT 10SM CLR 24/15 A3011 RMK A01
KVAF 231055Z AUTO 01010KT 10SM CLR 24/14 A3010 RMK A01
KVAF 231035Z AUTO 01009KT 10SM CLR 23/15 A3009 RMK A01
KVAF 231015Z AUTO 02008KT 360V060 10SM CLR 24/15 A3009 RMK A01
KVAF 230955Z AUTO VRB06G12KT 10SM CLR 24/15 A3009 RMK A01
KVAF 230935Z AUTO 03008G15KT 10SM FEW035 23/16 A3009 RMK A01
KVAF 230915Z AUTO 03008KT 10SM BKN035 23/15 A3009 RMK A01
KVAF 230855Z AUTO VRB06G14KT 10SM BKN035 24/16 A3010 RMK A01
KVAF 230835Z AUTO 03008G15KT 10SM BKN035 23/16 A3010 RMK A01
KVAF 230815Z AUTO 03007G13KT 010V070 10SM BKN034 24/16 A3010 RMK A01
KVAF 230755Z AUTO 03009KT 10SM BKN033 24/16 A3011 RMK A01
KVAF 230735Z AUTO 04007G13KT 10SM OVC033 24/16 A3011 RMK A01
KVAF 230715Z AUTO 03009KT 10SM OVC033 24/16 A3012 RMK A01
KVAF 230655Z AUTO 02010G16KT 10SM OVC032 24/16 A3012 RMK A01
KVAF 230635Z AUTO 03008G15KT 10SM BKN031 24/17 A3012 RMK A01
KVAF 230615Z AUTO 03008KT 10SM BKN030 24/17 A3011 RMK A01
KVAF 230555Z AUTO 03009G16KT 10SM BKN031 24/17 A3012 RMK A01
KVAF 230535Z AUTO 03009G16KT 10SM SCT031 24/17 A3011 RMK A01
KVAF 230515Z AUTO 02009G16KT 10SM BKN030 24/17 A3011 RMK A01
KVAF 230455Z AUTO 03008G18KT 10SM SCT028 24/18 A3012 RMK A01
KVAF 230435Z AUTO 02010G15KT 10SM BKN031 24/18 A3012 RMK A01
KVAF 230415Z AUTO 03010G16KT 10SM OVC032 24/18 A3012 RMK A01
KVAF 230355Z AUTO 03009G16KT 10SM BKN026 OVC032 24/19 A3012 RMK A01
KVAF 230335Z AUTO 03010G16KT 10SM SCT024 BKN031 24/19 A3012 RMK A01
KVAF 230315Z AUTO 02009G15KT 330V040 10SM SCT031 25/18 A3012 RMK A01
KVAF 230255Z AUTO 03009G15KT 10SM BKN031 25/19 A3011 RMK A01
KVAF 230235Z AUTO 10SM BKN030 25/19 A3010 RMK A01
KVAF 230215Z AUTO 03011KT 360V060 10SM BKN030 25/18 A3010 RMK A01
KVAF 230155Z AUTO 03009G15KT 10SM BKN028 25/19 A3009 RMK A01
KVAF 230135Z AUTO VRB06G14KT 10SM CLR 25/19 A3008 RMK A01
KVAF 230115Z AUTO VRB06G12KT 10SM FEW026 25/19 A3008 RMK A01
KVAF 230055Z AUTO 03008G13KT 10SM CLR 25/19 A3007 RMK A01
KVAF 230035Z AUTO 01008KT 340V050 10SM CLR 25/18 A3006 RMK A01
KVAF 230015Z AUTO 02007KT 10SM CLR 25/19 A3005 RMK A01
KVAF 222355Z AUTO 03006G12KT 9SM CLR 26/19 A3004 RMK A01
KVAF 222335Z AUTO 06007KT 10SM FEW100 27/20 A3004 RMK A01
KVAF 222315Z AUTO 08008KT 9SM FEW080 25/19 A3003 RMK A01
KVAF 222255Z AUTO 09010KT 8SM SCT080 25/19 A3003 RMK A01
KVAF 222235Z AUTO 07012KT 9SM BKN075 BKN085 25/19 A3003 RMK A01
KVAF 222215Z AUTO 06014KT 8SM SCT060 SCT070 BKN080 24/19 A3004 RMK A01
KVAF 222155Z AUTO 05012G18KT 6SM HZ BKN060 BKN070 BKN085 24/19 A3004 RMK A01
KVAF 222135Z AUTO 05014G21KT 7SM BKN070 BKN085 24/19 A3004 RMK A01
KVAF 222115Z AUTO 04012G21KT 5SM HZ FEW021 BKN070 BKN085 24/19 A3005 RMK A01
KVAF 222055Z AUTO 05018G24KT 5SM HZ FEW022 SCT075 24/19 A3004 RMK A01
KVAF 222035Z AUTO 05016G26KT 4SM HZ CLR 23/18 A3005 RMK A01
KVAF 222015Z AUTO 04014G27KT 4SM HZ SCT023 SCT038 SCT070 23/19 A3005 RMK A01
KVAF 221955Z AUTO 03015G25KT 3SM HZ BKN023 BKN038 BKN070 23/19 A3007 RMK A01